sensor_id;sensor_type;location;lat;lon;timestamp;pressure;altitude;pressure_sealevel;temperature;humidity
18201;BME280;9226;47.858;9.594;2023-09-19T00:00:45;95059.91;;;17.95;78.09
18201;BME280;9226;47.858;9.594;2023-09-19T00:03:12;95056.84;;;17.98;78.01
18201;BME280;9226;47.858;9.594;2023-09-19T00:05:38;95053.34;;;17.97;78.34
18201;BME280;9226;47.858;9.594;2023-09-19T00:08:04;95047.44;;;18.02;77.84
18201;BME280;9226;47.858;9.594;2023-09-19T00:10:30;95052.81;;;18.02;77.73
18201;BME280;9226;47.858;9.594;2023-09-19T00:12:58;95050.41;;;18.07;77.74
18201;BME280;9226;47.858;9.594;2023-09-19T00:15:35;95050.66;;;17.97;78.41
18201;BME280;9226;47.858;9.594;2023-09-19T00:18:01;95048.97;;;17.96;78.31
18201;BME280;9226;47.858;9.594;2023-09-19T00:20:27;95052.19;;;17.92;78.16
18201;BME280;9226;47.858;9.594;2023-09-19T00:22:53;95049.72;;;17.90;78.83
18201;BME280;9226;47.858;9.594;2023-09-19T00:25:20;95061.28;;;17.90;78.89
18201;BME280;9226;47.858;9.594;2023-09-19T00:27:46;95058.81;;;17.81;79.33
18201;BME280;9226;47.858;9.594;2023-09-19T00:30:13;95064.47;;;17.86;79.41
18201;BME280;9226;47.858;9.594;2023-09-19T00:32:46;95060.28;;;17.83;79.42
18201;BME280;9226;47.858;9.594;2023-09-19T00:35:15;95062.56;;;17.71;80.45
18201;BME280;9226;47.858;9.594;2023-09-19T00:37:41;95067.56;;;17.75;80.16
18201;BME280;9226;47.858;9.594;2023-09-19T00:40:10;95061.34;;;17.74;80.46
18201;BME280;9226;47.858;9.594;2023-09-19T00:42:46;95071.25;;;17.73;80.39
18201;BME280;9226;47.858;9.594;2023-09-19T00:45:15;95072.94;;;17.75;80.26
18201;BME280;9226;47.858;9.594;2023-09-19T00:47:45;95067.06;;;17.71;80.80
18201;BME280;9226;47.858;9.594;2023-09-19T00:50:13;95064.72;;;17.76;80.24
18201;BME280;9226;47.858;9.594;2023-09-19T00:52:40;95075.19;;;17.63;81.46
18201;BME280;9226;47.858;9.594;2023-09-19T00:55:11;95079.38;;;17.65;81.27
18201;BME280;9226;47.858;9.594;2023-09-19T00:57:39;95071.25;;;17.73;80.45
18201;BME280;9226;47.858;9.594;2023-09-19T01:00:09;95076.16;;;17.70;80.87
18201;BME280;9226;47.858;9.594;2023-09-19T01:02:43;95080.88;;;17.68;81.10
18201;BME280;9226;47.858;9.594;2023-09-19T01:05:09;95076.88;;;17.64;81.07
18201;BME280;9226;47.858;9.594;2023-09-19T01:07:36;95077.16;;;17.69;80.91
18201;BME280;9226;47.858;9.594;2023-09-19T01:10:05;95092.59;;;17.67;81.00
18201;BME280;9226;47.858;9.594;2023-09-19T01:13:07;95086.88;;;17.70;80.65
18201;BME280;9226;47.858;9.594;2023-09-19T01:21:08;95086.88;;;17.70;80.71
18201;BME280;9226;47.858;9.594;2023-09-19T01:27:17;95084.84;;;17.72;80.35
18201;BME280;9226;47.858;9.594;2023-09-19T01:29:46;95077.22;;;17.61;80.62
18201;BME280;9226;47.858;9.594;2023-09-19T01:32:15;95076.97;;;17.70;80.52
18201;BME280;9226;47.858;9.594;2023-09-19T01:34:56;95073.13;;;17.73;80.29
18201;BME280;9226;47.858;9.594;2023-09-19T01:37:24;95071.25;;;17.73;80.28
18201;BME280;9226;47.858;9.594;2023-09-19T01:40:12;95074.28;;;17.70;80.11
18201;BME280;9226;47.858;9.594;2023-09-19T01:42:57;95073.59;;;17.77;79.66
18201;BME280;9226;47.858;9.594;2023-09-19T01:50:55;95094.22;;;17.76;79.47
18201;BME280;9226;47.858;9.594;2023-09-19T01:53:27;95102.75;;;17.80;79.27
18201;BME280;9226;47.858;9.594;2023-09-19T01:55:56;95097.22;;;17.81;79.14
18201;BME280;9226;47.858;9.594;2023-09-19T01:58:43;95103.28;;;17.75;79.54
18201;BME280;9226;47.858;9.594;2023-09-19T02:01:12;95099.25;;;17.79;79.20
18201;BME280;9226;47.858;9.594;2023-09-19T02:03:41;95104.44;;;17.81;78.98
18201;BME280;9226;47.858;9.594;2023-09-19T02:06:14;95106.94;;;17.82;78.88
18201;BME280;9226;47.858;9.594;2023-09-19T02:08:40;95105.91;;;17.83;78.66
18201;BME280;9226;47.858;9.594;2023-09-19T02:11:06;95105.25;;;17.81;78.61
18201;BME280;9226;47.858;9.594;2023-09-19T02:13:31;95099.88;;;17.81;78.76
18201;BME280;9226;47.858;9.594;2023-09-19T02:15:57;95101.56;;;17.82;78.35
18201;BME280;9226;47.858;9.594;2023-09-19T02:18:23;95102.56;;;17.81;78.29
18201;BME280;9226;47.858;9.594;2023-09-19T02:20:48;95107.75;;;17.83;78.06
18201;BME280;9226;47.858;9.594;2023-09-19T02:23:14;95106.09;;;17.82;78.15
18201;BME280;9226;47.858;9.594;2023-09-19T02:25:40;95112.94;;;17.84;78.12
18201;BME280;9226;47.858;9.594;2023-09-19T02:28:06;95106.25;;;17.80;78.01
18201;BME280;9226;47.858;9.594;2023-09-19T02:30:34;95109.47;;;17.76;77.97
18201;BME280;9226;47.858;9.594;2023-09-19T02:33:00;95109.66;;;17.74;78.25
18201;BME280;9226;47.858;9.594;2023-09-19T02:35:31;95121.25;;;17.75;77.73
18201;BME280;9226;47.858;9.594;2023-09-19T02:38:00;95115.88;;;17.75;77.87
18201;BME280;9226;47.858;9.594;2023-09-19T02:40:25;95127.78;;;17.72;77.73
18201;BME280;9226;47.858;9.594;2023-09-19T02:42:55;95125.75;;;17.74;77.97
18201;BME280;9226;47.858;9.594;2023-09-19T02:45:21;95119.38;;;17.75;77.97
18201;BME280;9226;47.858;9.594;2023-09-19T02:47:48;95122.72;;;17.77;77.56
18201;BME280;9226;47.858;9.594;2023-09-19T02:50:15;95126.59;;;17.75;77.59
18201;BME280;9226;47.858;9.594;2023-09-19T02:52:42;95130.28;;;17.73;77.76
18201;BME280;9226;47.858;9.594;2023-09-19T02:55:14;95129.13;;;17.76;77.72
18201;BME280;9226;47.858;9.594;2023-09-19T02:57:49;95129.47;;;17.73;77.59
18201;BME280;9226;47.858;9.594;2023-09-19T03:00:17;95125.56;;;17.76;77.38
18201;BME280;9226;47.858;9.594;2023-09-19T03:02:48;95130.28;;;17.73;77.96
18201;BME280;9226;47.858;9.594;2023-09-19T03:05:14;95129.47;;;17.73;77.82
18201;BME280;9226;47.858;9.594;2023-09-19T03:07:39;95127.44;;;17.75;77.81
18201;BME280;9226;47.858;9.594;2023-09-19T03:10:08;95128.44;;;17.74;77.63
18201;BME280;9226;47.858;9.594;2023-09-19T03:12:33;95131.63;;;17.78;77.40
18201;BME280;9226;47.858;9.594;2023-09-19T03:14:59;95139.00;;;17.76;77.40
18201;BME280;9226;47.858;9.594;2023-09-19T03:17:25;95135.66;;;17.73;77.67
18201;BME280;9226;47.858;9.594;2023-09-19T03:19:50;95140.19;;;17.73;77.83
18201;BME280;9226;47.858;9.594;2023-09-19T03:22:16;95141.03;;;17.73;77.81
18201;BME280;9226;47.858;9.594;2023-09-19T03:24:41;95135.84;;;17.72;77.90
18201;BME280;9226;47.858;9.594;2023-09-19T03:27:09;95142.19;;;17.71;77.49
18201;BME280;9226;47.858;9.594;2023-09-19T03:29:35;95131.47;;;17.71;77.91
18201;BME280;9226;47.858;9.594;2023-09-19T03:32:01;95138.50;;;17.72;77.90
18201;BME280;9226;47.858;9.594;2023-09-19T03:34:27;95135.66;;;17.73;77.91
18201;BME280;9226;47.858;9.594;2023-09-19T03:36:52;95119.56;;;17.73;77.90
18201;BME280;9226;47.858;9.594;2023-09-19T03:39:18;95129.63;;;17.71;78.23
18201;BME280;9226;47.858;9.594;2023-09-19T03:41:43;95133.63;;;17.76;77.91
18201;BME280;9226;47.858;9.594;2023-09-19T03:44:10;95139.00;;;17.76;77.91
18201;BME280;9226;47.858;9.594;2023-09-19T03:46:35;95132.78;;;17.75;77.75
18201;BME280;9226;47.858;9.594;2023-09-19T03:49:01;95129.47;;;17.73;78.04
18201;BME280;9226;47.858;9.594;2023-09-19T03:51:26;95127.97;;;17.70;77.98
18201;BME280;9226;47.858;9.594;2023-09-19T03:53:52;95120.25;;;17.67;78.33
18201;BME280;9226;47.858;9.594;2023-09-19T03:56:17;95137.69;;;17.71;78.24
18201;BME280;9226;47.858;9.594;2023-09-19T03:58:42;95133.16;;;17.72;78.17
18201;BME280;9226;47.858;9.594;2023-09-19T04:01:08;95123.25;;;17.72;78.37
18201;BME280;9226;47.858;9.594;2023-09-19T04:03:34;95123.25;;;17.72;78.22
18201;BME280;9226;47.858;9.594;2023-09-19T04:06:13;95123.25;;;17.72;78.22
18201;BME280;9226;47.858;9.594;2023-09-19T04:08:39;95135.84;;;17.72;78.23
18201;BME280;9226;47.858;9.594;2023-09-19T04:11:04;95130.81;;;17.69;78.18
18201;BME280;9226;47.858;9.594;2023-09-19T04:13:29;95130.16;;;17.67;78.31
18201;BME280;9226;47.858;9.594;2023-09-19T04:15:55;95133.84;;;17.66;78.52
18201;BME280;9226;47.858;9.594;2023-09-19T04:18:20;95135.88;;;17.64;78.54
18201;BME280;9226;47.858;9.594;2023-09-19T04:20:49;95146.63;;;17.64;78.66
18201;BME280;9226;47.858;9.594;2023-09-19T04:23:15;95138.22;;;17.67;78.48
18201;BME280;9226;47.858;9.594;2023-09-19T04:25:41;95136.06;;;17.62;78.83
18201;BME280;9226;47.858;9.594;2023-09-19T04:28:06;95136.22;;;17.61;78.65
18201;BME280;9226;47.858;9.594;2023-09-19T04:30:31;95126.50;;;17.60;78.69
18201;BME280;9226;47.858;9.594;2023-09-19T04:32:57;95134.56;;;17.60;78.96
18201;BME280;9226;47.858;9.594;2023-09-19T04:35:22;95144.97;;;17.54;79.44
18201;BME280;9226;47.858;9.594;2023-09-19T04:37:48;95144.97;;;17.54;79.34
18201;BME280;9226;47.858;9.594;2023-09-19T04:40:13;95141.28;;;17.56;79.39
18201;BME280;9226;47.858;9.594;2023-09-19T04:42:43;95151.69;;;17.50;79.24
18201;BME280;9226;47.858;9.594;2023-09-19T04:45:09;95151.00;;;17.57;78.62
18201;BME280;9226;47.858;9.594;2023-09-19T04:47:36;95145.63;;;17.57;78.60
18201;BME280;9226;47.858;9.594;2023-09-19T04:50:06;95148.84;;;17.52;79.37
18201;BME280;9226;47.858;9.594;2023-09-19T04:52:31;95149.69;;;17.52;78.90
18201;BME280;9226;47.858;9.594;2023-09-19T04:54:57;95155.88;;;17.53;79.22
18201;BME280;9226;47.858;9.594;2023-09-19T04:57:23;95155.72;;;17.54;79.09
18201;BME280;9226;47.858;9.594;2023-09-19T04:59:48;95161.56;;;17.58;79.34
18201;BME280;9226;47.858;9.594;2023-09-19T05:02:14;95167.59;;;17.60;78.99
18201;BME280;9226;47.858;9.594;2023-09-19T05:04:39;95167.78;;;17.59;79.17
18201;BME280;9226;47.858;9.594;2023-09-19T05:07:05;95176.13;;;17.64;78.73
18201;BME280;9226;47.858;9.594;2023-09-19T05:09:30;95177.63;;;17.66;79.04
18201;BME280;9226;47.858;9.594;2023-09-19T05:11:55;95187.50;;;17.66;78.87
18201;BME280;9226;47.858;9.594;2023-09-19T05:14:21;95187.50;;;17.66;78.65
18201;BME280;9226;47.858;9.594;2023-09-19T05:16:47;95187.97;;;17.69;78.75
18201;BME280;9226;47.858;9.594;2023-09-19T05:19:13;95198.25;;;17.66;79.01
18201;BME280;9226;47.858;9.594;2023-09-19T05:21:38;95192.88;;;17.66;78.89
18201;BME280;9226;47.858;9.594;2023-09-19T05:24:05;95192.69;;;17.67;78.80
18201;BME280;9226;47.858;9.594;2023-09-19T05:26:32;95190.88;;;17.68;78.87
18201;BME280;9226;47.858;9.594;2023-09-19T05:28:57;95191.34;;;17.71;78.62
18201;BME280;9226;47.858;9.594;2023-09-19T05:31:23;95198.38;;;17.72;78.65
18201;BME280;9226;47.858;9.594;2023-09-19T05:33:49;95202.72;;;17.73;78.77
18201;BME280;9226;47.858;9.594;2023-09-19T05:36:15;95195.22;;;17.69;78.90
18201;BME280;9226;47.858;9.594;2023-09-19T05:38:41;95192.19;;;17.72;78.65
18201;BME280;9226;47.858;9.594;2023-09-19T05:41:07;95197.38;;;17.73;78.58
18201;BME280;9226;47.858;9.594;2023-09-19T05:43:34;95202.56;;;17.75;78.82
18201;BME280;9226;47.858;9.594;2023-09-19T05:46:03;95209.09;;;17.81;78.52
18201;BME280;9226;47.858;9.594;2023-09-19T05:48:28;95203.53;;;17.82;78.47
18201;BME280;9226;47.858;9.594;2023-09-19T05:50:54;95219.81;;;17.81;78.58
18201;BME280;9226;47.858;9.594;2023-09-19T05:53:19;95212.41;;;17.83;78.86
18201;BME280;9226;47.858;9.594;2023-09-19T05:55:45;95220.81;;;17.80;78.43
18201;BME280;9226;47.858;9.594;2023-09-19T05:58:11;95234.72;;;17.83;78.55
18201;BME280;9226;47.858;9.594;2023-09-19T06:00:39;95235.22;;;17.87;78.46
18201;BME280;9226;47.858;9.594;2023-09-19T06:03:08;95236.75;;;17.81;78.45
18201;BME280;9226;47.858;9.594;2023-09-19T06:05:33;95238.44;;;17.82;78.54
18201;BME280;9226;47.858;9.594;2023-09-19T06:07:59;95227.88;;;17.81;78.74
18201;BME280;9226;47.858;9.594;2023-09-19T06:10:26;95231.03;;;17.84;78.40
18201;BME280;9226;47.858;9.594;2023-09-19T06:12:53;95232.53;;;17.87;78.35
18201;BME280;9226;47.858;9.594;2023-09-19T06:15:20;95235.69;;;17.99;78.31
18201;BME280;9226;47.858;9.594;2023-09-19T06:17:49;95228.25;;;18.09;77.94
18201;BME280;9226;47.858;9.594;2023-09-19T06:20:15;95232.59;;;18.10;77.75
18201;BME280;9226;47.858;9.594;2023-09-19T06:22:42;95233.56;;;18.17;77.53
18201;BME280;9226;47.858;9.594;2023-09-19T06:25:12;95236.56;;;18.22;77.12
18201;BME280;9226;47.858;9.594;2023-09-19T06:27:44;95230.84;;;18.25;77.07
18201;BME280;9226;47.858;9.594;2023-09-19T06:30:10;95244.56;;;18.31;76.95
18201;BME280;9226;47.858;9.594;2023-09-19T06:32:43;95240.06;;;18.31;76.69
18201;BME280;9226;47.858;9.594;2023-09-19T06:35:12;95237.66;;;18.36;76.22
18201;BME280;9226;47.858;9.594;2023-09-19T06:37:38;95242.16;;;18.36;76.01
18201;BME280;9226;47.858;9.594;2023-09-19T06:40:11;95240.16;;;18.38;76.18
18201;BME280;9226;47.858;9.594;2023-09-19T06:42:44;95235.25;;;18.41;76.08
18201;BME280;9226;47.858;9.594;2023-09-19T06:45:14;95237.53;;;18.53;76.78
18201;BME280;9226;47.858;9.594;2023-09-19T06:47:44;95244.56;;;18.85;77.16
18201;BME280;9226;47.858;9.594;2023-09-19T06:50:10;95244.81;;;19.13;75.39
18201;BME280;9226;47.858;9.594;2023-09-19T06:52:42;95241.22;;;19.36;74.76
18201;BME280;9226;47.858;9.594;2023-09-19T06:55:07;95238.81;;;19.56;74.70
18201;BME280;9226;47.858;9.594;2023-09-19T06:57:37;95241.69;;;19.55;73.25
18201;BME280;9226;47.858;9.594;2023-09-19T07:00:03;95240.84;;;19.54;72.42
18201;BME280;9226;47.858;9.594;2023-09-19T07:02:35;95251.59;;;19.54;72.36
18201;BME280;9226;47.858;9.594;2023-09-19T07:05:00;95255.69;;;19.50;72.35
18201;BME280;9226;47.858;9.594;2023-09-19T07:07:26;95263.00;;;19.41;72.53
18201;BME280;9226;47.858;9.594;2023-09-19T07:09:51;95263.84;;;19.42;72.17
18201;BME280;9226;47.858;9.594;2023-09-19T07:12:19;95263.38;;;19.38;71.72
18201;BME280;9226;47.858;9.594;2023-09-19T07:14:44;95272.72;;;19.27;72.58
18201;BME280;9226;47.858;9.594;2023-09-19T07:17:10;95278.88;;;19.51;72.76
18201;BME280;9226;47.858;9.594;2023-09-19T07:19:36;95272.78;;;19.72;72.46
18201;BME280;9226;47.858;9.594;2023-09-19T07:22:02;95274.00;;;19.99;71.47
18201;BME280;9226;47.858;9.594;2023-09-19T07:24:28;95276.22;;;20.47;71.50
18201;BME280;9226;47.858;9.594;2023-09-19T07:26:54;95281.59;;;20.84;70.26
18201;BME280;9226;47.858;9.594;2023-09-19T07:29:19;95281.22;;;21.08;69.06
18201;BME280;9226;47.858;9.594;2023-09-19T07:31:45;95292.09;;;21.22;68.77
18201;BME280;9226;47.858;9.594;2023-09-19T07:34:11;95284.75;;;21.37;68.02
18201;BME280;9226;47.858;9.594;2023-09-19T07:36:37;95292.19;;;21.57;68.24
18201;BME280;9226;47.858;9.594;2023-09-19T07:39:03;95292.31;;;21.70;66.74
18201;BME280;9226;47.858;9.594;2023-09-19T07:41:32;95295.47;;;21.80;66.07
18201;BME280;9226;47.858;9.594;2023-09-19T07:43:57;95294.69;;;21.86;64.76
18201;BME280;9226;47.858;9.594;2023-09-19T07:46:23;95299.91;;;21.95;65.08
18201;BME280;9226;47.858;9.594;2023-09-19T07:48:49;95296.59;;;21.93;63.86
18201;BME280;9226;47.858;9.594;2023-09-19T07:51:15;95308.50;;;22.05;63.70
18201;BME280;9226;47.858;9.594;2023-09-19T07:53:41;95314.53;;;22.07;62.35
18201;BME280;9226;47.858;9.594;2023-09-19T07:56:09;95299.78;;;22.03;61.78
18201;BME280;9226;47.858;9.594;2023-09-19T07:58:35;95303.16;;;22.18;62.95
18201;BME280;9226;47.858;9.594;2023-09-19T08:01:06;95315.63;;;22.19;61.14
18201;BME280;9226;47.858;9.594;2023-09-19T08:03:32;95309.84;;;22.22;61.66
18201;BME280;9226;47.858;9.594;2023-09-19T08:05:58;95313.66;;;22.35;62.04
18201;BME280;9226;47.858;9.594;2023-09-19T08:08:24;95318.91;;;22.43;60.13
18201;BME280;9226;47.858;9.594;2023-09-19T08:10:55;95322.63;;;22.42;60.16
18201;BME280;9226;47.858;9.594;2023-09-19T08:13:22;95318.03;;;22.36;59.40
18201;BME280;9226;47.858;9.594;2023-09-19T08:15:48;95313.28;;;22.45;60.78
18201;BME280;9226;47.858;9.594;2023-09-19T08:18:15;95323.31;;;22.57;60.93
18201;BME280;9226;47.858;9.594;2023-09-19T08:20:41;95322.31;;;22.72;60.70
18201;BME280;9226;47.858;9.594;2023-09-19T08:23:11;95322.97;;;22.81;60.14
18201;BME280;9226;47.858;9.594;2023-09-19T08:25:37;95329.06;;;23.03;60.86
18201;BME280;9226;47.858;9.594;2023-09-19T08:28:04;95323.91;;;23.21;59.16
18201;BME280;9226;47.858;9.594;2023-09-19T08:30:33;95323.50;;;23.38;58.34
18201;BME280;9226;47.858;9.594;2023-09-19T08:33:00;95315.81;;;23.61;58.48
18201;BME280;9226;47.858;9.594;2023-09-19T08:35:27;95323.91;;;23.75;58.29
18201;BME280;9226;47.858;9.594;2023-09-19T08:37:52;95328.72;;;23.93;58.11
18201;BME280;9226;47.858;9.594;2023-09-19T08:40:18;95318.72;;;23.87;53.86
18201;BME280;9226;47.858;9.594;2023-09-19T08:42:54;95329.31;;;24.08;55.25
18201;BME280;9226;47.858;9.594;2023-09-19T08:45:21;95321.38;;;24.20;54.76
18201;BME280;9226;47.858;9.594;2023-09-19T08:48:22;95327.63;;;24.14;52.56
18201;BME280;9226;47.858;9.594;2023-09-19T08:50:52;95321.38;;;24.20;54.29
18201;BME280;9226;47.858;9.594;2023-09-19T08:53:31;95327.19;;;24.24;52.94
18201;BME280;9226;47.858;9.594;2023-09-19T08:56:00;95324.84;;;24.41;53.16
18201;BME280;9226;47.858;9.594;2023-09-19T08:58:31;95322.69;;;24.56;53.59
18201;BME280;9226;47.858;9.594;2023-09-19T09:00:58;95331.63;;;24.77;54.07
18201;BME280;9226;47.858;9.594;2023-09-19T09:03:30;95322.69;;;25.01;52.91
18201;BME280;9226;47.858;9.594;2023-09-19T09:05:57;95329.38;;;25.05;51.88
18201;BME280;9226;47.858;9.594;2023-09-19T09:08:23;95331.03;;;25.06;51.97
18201;BME280;9226;47.858;9.594;2023-09-19T09:10:50;95337.06;;;25.08;51.85
18201;BME280;9226;47.858;9.594;2023-09-19T09:13:16;95341.72;;;24.95;49.80
18201;BME280;9226;47.858;9.594;2023-09-19T09:15:42;95343.00;;;24.92;51.10
18201;BME280;9226;47.858;9.594;2023-09-19T09:18:10;95338.75;;;25.03;52.21
18201;BME280;9226;47.858;9.594;2023-09-19T09:20:36;95344.13;;;25.16;50.98
18201;BME280;9226;47.858;9.594;2023-09-19T09:23:01;95336.53;;;25.25;51.46
18201;BME280;9226;47.858;9.594;2023-09-19T09:25:54;95335.84;;;25.43;50.52
18201;BME280;9226;47.858;9.594;2023-09-19T09:28:21;95339.88;;;25.59;50.65
18201;BME280;9226;47.858;9.594;2023-09-19T09:30:47;95345.78;;;25.49;49.01
18201;BME280;9226;47.858;9.594;2023-09-19T09:33:14;95353.78;;;25.44;48.54
18201;BME280;9226;47.858;9.594;2023-09-19T09:35:48;95356.75;;;24.97;48.35
18201;BME280;9226;47.858;9.594;2023-09-19T09:38:21;95349.78;;;24.69;49.71
18201;BME280;9226;47.858;9.594;2023-09-19T09:40:52;95350.25;;;24.53;50.27
18201;BME280;9226;47.858;9.594;2023-09-19T09:43:37;95339.06;;;24.29;50.54
18201;BME280;9226;47.858;9.594;2023-09-19T09:46:09;95347.69;;;23.99;51.58
18201;BME280;9226;47.858;9.594;2023-09-19T09:49:02;95341.22;;;24.00;51.97
18201;BME280;9226;47.858;9.594;2023-09-19T09:51:59;95335.56;;;24.09;52.52
18201;BME280;9226;47.858;9.594;2023-09-19T09:54:27;95326.97;;;24.25;52.25
18201;BME280;9226;47.858;9.594;2023-09-19T09:57:09;95337.56;;;24.40;50.58
18201;BME280;9226;47.858;9.594;2023-09-19T09:59:55;95333.97;;;24.46;50.27
18201;BME280;9226;47.858;9.594;2023-09-19T10:02:27;95330.00;;;24.55;49.94
18201;BME280;9226;47.858;9.594;2023-09-19T10:05:17;95333.97;;;24.53;50.04
18201;BME280;9226;47.858;9.594;2023-09-19T10:07:52;95334.75;;;24.67;50.48
18201;BME280;9226;47.858;9.594;2023-09-19T10:10:38;95322.34;;;24.91;51.06
18201;BME280;9226;47.858;9.594;2023-09-19T10:13:05;95318.97;;;24.96;48.97
18201;BME280;9226;47.858;9.594;2023-09-19T10:15:33;95330.13;;;25.13;49.88
18201;BME280;9226;47.858;9.594;2023-09-19T10:18:04;95327.63;;;25.18;48.94
18201;BME280;9226;47.858;9.594;2023-09-19T10:20:30;95325.25;;;25.28;48.94
18201;BME280;9226;47.858;9.594;2023-09-19T10:22:56;95328.94;;;25.40;48.49
18201;BME280;9226;47.858;9.594;2023-09-19T10:25:26;95334.97;;;25.42;48.40
18201;BME280;9226;47.858;9.594;2023-09-19T10:27:54;95342.91;;;25.44;48.53
18201;BME280;9226;47.858;9.594;2023-09-19T10:30:22;95339.81;;;25.40;48.31
18201;BME280;9226;47.858;9.594;2023-09-19T10:32:57;95340.09;;;25.32;48.18
18201;BME280;9226;47.858;9.594;2023-09-19T10:35:23;95338.19;;;25.33;48.70
18201;BME280;9226;47.858;9.594;2023-09-19T10:37:50;95341.00;;;25.13;48.15
18201;BME280;9226;47.858;9.594;2023-09-19T10:40:18;95342.78;;;24.93;48.42
18201;BME280;9226;47.858;9.594;2023-09-19T10:42:46;95342.00;;;24.86;48.54
18201;BME280;9226;47.858;9.594;2023-09-19T10:45:15;95342.03;;;24.80;49.03
18201;BME280;9226;47.858;9.594;2023-09-19T10:47:43;95349.53;;;24.84;50.02
18201;BME280;9226;47.858;9.594;2023-09-19T10:50:08;95344.22;;;24.96;50.28
18201;BME280;9226;47.858;9.594;2023-09-19T10:52:39;95339.34;;;25.12;49.17
18201;BME280;9226;47.858;9.594;2023-09-19T10:55:06;95350.59;;;25.15;47.86
18201;BME280;9226;47.858;9.594;2023-09-19T10:57:35;95348.31;;;25.12;47.54
18201;BME280;9226;47.858;9.594;2023-09-19T11:00:06;95340.16;;;25.12;48.19
18201;BME280;9226;47.858;9.594;2023-09-19T11:05:34;95339.25;;;25.25;47.32
18201;BME280;9226;47.858;9.594;2023-09-19T11:08:00;95336.38;;;25.20;46.84
18201;BME280;9226;47.858;9.594;2023-09-19T11:10:48;95333.91;;;25.12;45.85
18201;BME280;9226;47.858;9.594;2023-09-19T11:13:30;95331.25;;;25.05;47.55
18201;BME280;9226;47.858;9.594;2023-09-19T11:16:04;95330.56;;;25.09;47.77
18201;BME280;9226;47.858;9.594;2023-09-19T11:26:50;95323.84;;;25.19;47.50
18201;BME280;9226;47.858;9.594;2023-09-19T11:29:27;95315.63;;;25.00;46.67
18201;BME280;9226;47.858;9.594;2023-09-19T11:31:54;95323.94;;;25.05;46.87
18201;BME280;9226;47.858;9.594;2023-09-19T11:39:39;95323.94;;;25.05;48.02
18201;BME280;9226;47.858;9.594;2023-09-19T11:42:43;95319.00;;;24.89;46.86
18201;BME280;9226;47.858;9.594;2023-09-19T11:48:23;95321.09;;;24.87;47.72
18201;BME280;9226;47.858;9.594;2023-09-19T11:50:51;95321.19;;;24.67;47.55
18201;BME280;9226;47.858;9.594;2023-09-19T11:53:17;95324.59;;;24.49;47.01
18201;BME280;9226;47.858;9.594;2023-09-19T11:55:45;95322.13;;;24.41;47.22
18201;BME280;9226;47.858;9.594;2023-09-19T11:58:11;95319.44;;;24.34;47.88
18201;BME280;9226;47.858;9.594;2023-09-19T12:00:39;95310.47;;;24.33;48.51
18201;BME280;9226;47.858;9.594;2023-09-19T12:03:09;95319.88;;;24.24;47.56
18201;BME280;9226;47.858;9.594;2023-09-19T12:05:36;95326.81;;;24.07;48.82
18201;BME280;9226;47.858;9.594;2023-09-19T12:08:03;95320.78;;;24.05;48.63
18201;BME280;9226;47.858;9.594;2023-09-19T12:10:30;95312.25;;;23.94;48.14
18201;BME280;9226;47.858;9.594;2023-09-19T12:12:57;95312.69;;;23.91;49.11
18201;BME280;9226;47.858;9.594;2023-09-19T12:15:25;95316.03;;;23.87;48.71
18201;BME280;9226;47.858;9.594;2023-09-19T12:17:59;95304.72;;;23.83;49.26
18201;BME280;9226;47.858;9.594;2023-09-19T12:20:25;95298.91;;;23.86;49.12
18201;BME280;9226;47.858;9.594;2023-09-19T12:22:50;95301.19;;;23.89;49.34
18201;BME280;9226;47.858;9.594;2023-09-19T12:25:16;95300.16;;;23.90;49.63
18201;BME280;9226;47.858;9.594;2023-09-19T12:27:48;95298.06;;;23.92;50.51
18201;BME280;9226;47.858;9.594;2023-09-19T12:30:15;95290.59;;;23.94;49.77
18201;BME280;9226;47.858;9.594;2023-09-19T12:32:43;95283.69;;;23.98;50.45
18201;BME280;9226;47.858;9.594;2023-09-19T12:35:09;95290.97;;;24.05;50.93
18201;BME280;9226;47.858;9.594;2023-09-19T12:37:43;95283.88;;;24.03;50.59
18201;BME280;9226;47.858;9.594;2023-09-19T12:40:13;95290.97;;;24.05;49.79
18201;BME280;9226;47.858;9.594;2023-09-19T12:42:48;95287.19;;;24.12;49.59
18201;BME280;9226;47.858;9.594;2023-09-19T12:45:16;95288.22;;;24.18;50.39
18201;BME280;9226;47.858;9.594;2023-09-19T12:53:35;95280.94;;;24.12;50.07
18201;BME280;9226;47.858;9.594;2023-09-19T12:56:06;95283.22;;;24.15;50.86
18201;BME280;9226;47.858;9.594;2023-09-19T12:58:34;95276.31;;;24.19;50.20
18201;BME280;9226;47.858;9.594;2023-09-19T13:01:00;95276.28;;;24.26;50.39
18201;BME280;9226;47.858;9.594;2023-09-19T13:03:27;95267.19;;;24.13;49.71
18201;BME280;9226;47.858;9.594;2023-09-19T13:06:02;95274.66;;;24.18;50.40
18201;BME280;9226;47.858;9.594;2023-09-19T13:08:37;95267.19;;;24.07;49.60
18201;BME280;9226;47.858;9.594;2023-09-19T13:13:32;95260.97;;;23.86;49.34
18201;BME280;9226;47.858;9.594;2023-09-19T13:15:59;95263.28;;;23.76;49.88
18201;BME280;9226;47.858;9.594;2023-09-19T13:18:26;95256.63;;;23.65;50.59
18201;BME280;9226;47.858;9.594;2023-09-19T13:21:12;95256.22;;;23.68;50.88
18201;BME280;9226;47.858;9.594;2023-09-19T13:23:43;95255.78;;;23.71;50.39
18201;BME280;9226;47.858;9.594;2023-09-19T13:26:10;95255.38;;;23.54;50.35
18201;BME280;9226;47.858;9.594;2023-09-19T13:28:37;95252.47;;;23.56;51.00
18201;BME280;9226;47.858;9.594;2023-09-19T13:31:03;95260.38;;;23.57;50.09
18201;BME280;9226;47.858;9.594;2023-09-19T13:33:28;95247.06;;;23.49;49.71
18201;BME280;9226;47.858;9.594;2023-09-19T13:35:54;95247.06;;;23.49;50.21
18201;BME280;9226;47.858;9.594;2023-09-19T13:38:20;95245.41;;;23.48;50.67
18201;BME280;9226;47.858;9.594;2023-09-19T13:40:47;95247.06;;;23.49;51.28
18201;BME280;9226;47.858;9.594;2023-09-19T13:43:13;95245.63;;;23.53;51.65
18201;BME280;9226;47.858;9.594;2023-09-19T13:45:39;95239.78;;;23.49;51.00
18201;BME280;9226;47.858;9.594;2023-09-19T13:48:07;95238.09;;;23.55;50.08
18201;BME280;9226;47.858;9.594;2023-09-19T13:50:34;95231.03;;;23.54;50.00
18201;BME280;9226;47.858;9.594;2023-09-19T13:53:01;95232.88;;;23.60;50.36
18201;BME280;9226;47.858;9.594;2023-09-19T13:55:27;95228.50;;;23.59;49.71
18201;BME280;9226;47.858;9.594;2023-09-19T13:57:53;95233.53;;;23.56;50.39
18201;BME280;9226;47.858;9.594;2023-09-19T14:00:24;95223.53;;;23.56;50.16